Time;durP1;ratioP1;P1;durP2;ratioP2;P2;SDS_P1;SDS_P2;PMS_P1;PMS_P2;Temp;Humidity;BMP_temperature;BMP_pressure;BME280_temperature;BME280_humidity;BME280_pressure;Samples;Min_cycle;Max_cycle;Signal;HPM_P1;HPM_P2
2021/08/16 00:00:25;;;;;;;22.13;20.70;;;20.40;99.90;;;;;;5052451;28;20447;-70
2021/08/16 00:02:52;;;;;;;20.80;19.60;;;20.40;99.90;;;;;;5052459;28;20456;-70
2021/08/16 00:05:19;;;;;;;22.63;21.27;;;20.40;99.90;;;;;;5052068;28;20551;-69
2021/08/16 00:07:47;;;;;;;22.67;20.97;;;20.50;99.90;;;;;;5052431;28;20692;-69
2021/08/16 00:10:16;;;;;;;22.10;20.50;;;20.50;99.90;;;;;;5051812;28;20476;-69
2021/08/16 00:12:43;;;;;;;22.47;20.93;;;20.60;99.90;;;;;;5051108;28;20459;-69
2021/08/16 00:15:10;;;;;;;22.03;20.63;;;20.60;99.90;;;;;;5052440;28;20459;-68
2021/08/16 00:17:37;;;;;;;24.00;22.30;;;20.60;99.90;;;;;;5052233;28;20479;-69
2021/08/16 00:20:05;;;;;;;21.53;20.20;;;20.60;99.90;;;;;;5051902;28;20546;-69
2021/08/16 00:22:31;;;;;;;21.90;20.07;;;20.70;99.90;;;;;;5051883;28;20478;-70
2021/08/16 00:24:59;;;;;;;22.27;20.77;;;20.70;99.90;;;;;;5051887;28;20455;-70
2021/08/16 00:27:26;;;;;;;24.10;22.47;;;20.70;99.90;;;;;;5052054;28;20831;-70
2021/08/16 00:29:53;;;;;;;24.10;22.50;;;20.80;99.90;;;;;;5050176;28;20488;-69
2021/08/16 00:32:19;;;;;;;23.30;21.60;;;20.80;99.90;;;;;;5051556;28;20458;-70
2021/08/16 00:34:46;;;;;;;23.07;21.43;;;20.90;99.90;;;;;;5051590;28;20448;-70
2021/08/16 00:37:13;;;;;;;22.93;21.37;;;20.90;99.90;;;;;;5051578;28;20958;-70
2021/08/16 00:39:39;;;;;;;23.47;21.77;;;20.90;99.90;;;;;;5051764;28;20451;-70
2021/08/16 00:42:10;;;;;;;23.73;22.03;;;20.90;99.90;;;;;;5051862;28;20459;-70
2021/08/16 00:44:37;;;;;;;21.93;20.40;;;20.90;99.90;;;;;;5051867;28;20833;-70
2021/08/16 00:47:05;;;;;;;22.73;21.30;;;20.90;99.90;;;;;;5051150;28;20913;-71
2021/08/16 00:49:31;;;;;;;23.83;21.63;;;20.90;99.90;;;;;;5051077;28;20688;-70
2021/08/16 00:51:58;;;;;;;23.93;22.33;;;20.90;99.90;;;;;;5051310;28;20463;-70
2021/08/16 00:54:25;;;;;;;23.03;21.40;;;20.90;99.90;;;;;;5051438;28;20452;-69
2021/08/16 00:56:52;;;;;;;22.87;21.37;;;21.00;99.90;;;;;;5051355;28;20968;-69
2021/08/16 00:59:21;;;;;;;23.80;22.20;;;21.00;99.90;;;;;;5051200;28;20448;-70
2021/08/16 01:01:48;;;;;;;22.50;21.30;;;21.00;99.90;;;;;;5050887;28;20893;-70
2021/08/16 01:04:16;;;;;;;22.83;21.33;;;20.90;99.90;;;;;;5050796;28;20463;-70
2021/08/16 01:06:43;;;;;;;24.10;22.20;;;20.90;99.90;;;;;;5051096;28;20471;-70
2021/08/16 01:09:09;;;;;;;25.47;23.40;;;20.80;99.90;;;;;;5051218;28;20487;-70
2021/08/16 01:11:36;;;;;;;23.47;22.10;;;20.80;99.90;;;;;;5051372;28;20910;-70
2021/08/16 01:14:04;;;;;;;24.20;22.57;;;20.80;99.90;;;;;;5050587;28;20946;-70
2021/08/16 01:16:32;;;;;;;23.90;22.27;;;20.80;99.90;;;;;;5050977;28;20452;-70
2021/08/16 01:18:58;;;;;;;25.13;23.53;;;20.80;99.90;;;;;;5050865;28;20467;-70
2021/08/16 01:21:25;;;;;;;23.23;21.63;;;20.80;99.90;;;;;;5050762;28;20467;-70
2021/08/16 01:23:52;;;;;;;24.07;22.43;;;20.90;99.90;;;;;;5050749;28;20445;-69
2021/08/16 01:26:19;;;;;;;25.10;23.23;;;21.00;99.90;;;;;;5050743;28;20444;-70
2021/08/16 01:28:47;;;;;;;24.33;22.60;;;21.00;99.90;;;;;;5050779;28;20737;-70
2021/08/16 01:31:13;;;;;;;21.20;20.00;;;21.00;99.90;;;;;;5050350;28;20480;-70
2021/08/16 01:33:41;;;;;;;24.80;23.27;;;20.90;99.90;;;;;;5050674;28;20451;-70
2021/08/16 01:36:08;;;;;;;26.10;24.00;;;20.90;99.90;;;;;;5050760;28;20938;-69
2021/08/16 01:38:36;;;;;;;23.10;21.50;;;20.80;99.90;;;;;;5050259;28;20952;-69
2021/08/16 01:41:04;;;;;;;24.00;22.43;;;20.80;99.90;;;;;;5050467;28;20455;-69
2021/08/16 01:43:31;;;;;;;26.83;25.10;;;20.80;99.90;;;;;;5050456;28;20835;-69
2021/08/16 01:45:59;;;;;;;26.53;24.50;;;20.80;99.90;;;;;;5050281;28;20835;-69
2021/08/16 01:48:27;;;;;;;23.47;21.93;;;20.80;99.90;;;;;;5050357;28;20912;-69
2021/08/16 01:50:54;;;;;;;24.73;22.97;;;20.90;99.90;;;;;;5050639;28;20482;-69
2021/08/16 01:53:20;;;;;;;25.23;23.43;;;20.90;99.90;;;;;;5050596;28;20451;-69
2021/08/16 01:55:47;;;;;;;23.97;22.37;;;21.00;99.90;;;;;;5050441;28;20455;-69
2021/08/16 01:58:14;;;;;;;25.70;24.00;;;21.00;99.90;;;;;;5050167;28;20448;-69
2021/08/16 02:00:40;;;;;;;24.20;22.70;;;21.00;99.90;;;;;;5048695;28;20448;-69
2021/08/16 02:03:08;;;;;;;24.70;22.97;;;20.90;99.90;;;;;;5050520;28;20479;-69
2021/08/16 02:05:35;;;;;;;26.33;24.33;;;20.80;99.90;;;;;;5050463;28;20480;-69
2021/08/16 02:08:02;;;;;;;26.07;23.97;;;20.80;99.90;;;;;;5050167;28;20478;-70
2021/08/16 02:10:29;;;;;;;26.73;24.63;;;20.80;99.90;;;;;;5050221;28;20500;-70
2021/08/16 02:12:56;;;;;;;25.80;23.97;;;20.90;99.90;;;;;;5050432;28;20452;-69
2021/08/16 02:15:23;;;;;;;26.67;24.87;;;20.90;99.90;;;;;;5050354;28;20447;-69
2021/08/16 02:17:49;;;;;;;24.53;22.90;;;21.00;99.90;;;;;;5050373;28;20523;-70
2021/08/16 02:20:18;;;;;;;25.53;23.30;;;21.00;99.90;;;;;;5050299;28;20457;-70
2021/08/16 02:22:45;;;;;;;26.63;24.70;;;21.00;99.90;;;;;;5050083;28;20476;-70
2021/08/16 02:25:12;;;;;;;28.40;26.03;;;21.00;99.90;;;;;;5050360;28;20452;-70
2021/08/16 02:27:44;;;;;;;29.90;26.90;;;21.00;99.90;;;;;;5050200;28;20450;-70
2021/08/16 02:30:12;;;;;;;27.37;25.00;;;21.10;99.90;;;;;;5050156;28;20491;-70
2021/08/16 02:32:39;;;;;;;26.60;24.73;;;21.10;99.90;;;;;;5050216;28;20467;-70
2021/08/16 02:35:06;;;;;;;26.37;24.27;;;21.10;99.90;;;;;;5050574;28;20454;-70
2021/08/16 02:37:34;;;;;;;24.90;23.17;;;21.10;99.90;;;;;;5053736;28;20803;-70
2021/08/16 02:40:01;;;;;;;26.00;23.97;;;21.10;99.90;;;;;;5053930;28;20808;-70
2021/08/16 02:42:28;;;;;;;24.87;23.27;;;21.20;99.90;;;;;;5053924;28;20452;-70
2021/08/16 02:44:55;;;;;;;24.30;22.70;;;21.20;99.90;;;;;;5053961;28;20448;-70
2021/08/16 02:47:22;;;;;;;26.30;24.17;;;21.30;99.90;;;;;;5053973;28;20933;-69
2021/08/16 02:49:49;;;;;;;25.47;23.77;;;21.30;99.90;;;;;;5052924;28;20518;-69
2021/08/16 02:52:16;;;;;;;26.30;24.10;;;21.30;99.90;;;;;;5053495;28;20806;-69
2021/08/16 02:54:44;;;;;;;25.43;23.77;;;21.30;99.90;;;;;;5053543;28;20447;-69
2021/08/16 02:57:12;;;;;;;24.23;22.40;;;21.30;99.90;;;;;;5053744;28;20498;-69
2021/08/16 02:59:39;;;;;;;24.13;22.53;;;21.30;99.90;;;;;;5053399;28;20452;-69
2021/08/16 03:02:06;;;;;;;23.87;22.37;;;21.30;99.90;;;;;;5053396;28;20444;-69
2021/08/16 03:04:33;;;;;;;23.60;22.07;;;21.40;99.90;;;;;;5053141;28;21008;-71
2021/08/16 03:06:59;;;;;;;23.40;21.93;;;21.30;99.90;;;;;;5053261;28;20646;-70
2021/08/16 03:09:27;;;;;;;22.23;20.73;;;21.50;99.90;;;;;;5053034;28;20459;-69
2021/08/16 03:11:56;;;;;;;23.00;21.60;;;21.40;99.90;;;;;;5053331;28;20545;-69
2021/08/16 03:14:23;;;;;;;22.87;21.47;;;21.40;99.90;;;;;;5053445;28;20455;-69
2021/08/16 03:16:50;;;;;;;23.10;21.47;;;21.50;99.90;;;;;;5051895;28;20451;-69
2021/08/16 03:19:16;;;;;;;21.00;19.60;;;21.50;99.90;;;;;;5053036;28;20451;-69
2021/08/16 03:21:43;;;;;;;23.17;21.43;;;21.50;99.90;;;;;;5052844;28;20447;-71
2021/08/16 03:24:10;;;;;;;22.63;21.10;;;21.50;99.90;;;;;;5053034;28;20452;-72
2021/08/16 03:26:37;;;;;;;21.80;20.20;;;21.60;99.90;;;;;;5053110;28;20459;-70
2021/08/16 03:29:05;;;;;;;21.10;19.80;;;21.60;99.90;;;;;;5052822;28;20934;-72
2021/08/16 03:31:32;;;;;;;20.27;19.07;;;21.60;99.90;;;;;;5052647;28;20491;-70
2021/08/16 03:33:58;;;;;;;20.93;19.83;;;21.50;99.90;;;;;;5052716;28;20459;-72
2021/08/16 03:36:25;;;;;;;21.80;20.50;;;21.60;99.90;;;;;;5052920;28;20968;-71
2021/08/16 03:38:52;;;;;;;21.17;19.90;;;21.50;99.90;;;;;;5052910;28;20455;-72
2021/08/16 03:41:19;;;;;;;20.23;19.00;;;21.50;99.90;;;;;;5052646;28;20965;-72
2021/08/16 03:43:45;;;;;;;21.73;20.30;;;21.40;99.90;;;;;;5052573;28;20448;-71
2021/08/16 03:46:13;;;;;;;21.63;20.17;;;21.40;99.90;;;;;;5052311;28;20825;-71
2021/08/16 03:48:40;;;;;;;22.63;20.97;;;21.40;99.90;;;;;;5052451;28;20486;-71
2021/08/16 03:51:07;;;;;;;21.60;20.07;;;21.50;99.90;;;;;;5052676;28;20488;-71
2021/08/16 03:53:34;;;;;;;20.60;19.20;;;21.50;99.90;;;;;;5052520;28;20478;-71
2021/08/16 03:56:00;;;;;;;21.63;20.13;;;21.40;99.90;;;;;;5052329;28;20444;-71
2021/08/16 03:58:27;;;;;;;22.17;20.60;;;21.40;99.90;;;;;;5051889;28;20456;-70
2021/08/16 04:00:54;;;;;;;22.87;21.10;;;21.60;99.90;;;;;;5052392;28;20455;-70
2021/08/16 04:03:22;;;;;;;21.47;20.20;;;21.60;99.90;;;;;;5052069;28;20968;-70
2021/08/16 04:05:49;;;;;;;21.47;19.83;;;21.60;99.90;;;;;;5052169;28;20478;-70
2021/08/16 04:08:16;;;;;;;21.80;20.30;;;21.60;99.90;;;;;;5052103;28;20797;-70
2021/08/16 04:10:42;;;;;;;22.40;21.10;;;21.50;99.90;;;;;;5051679;28;20491;-70
2021/08/16 04:13:09;;;;;;;23.13;21.57;;;21.40;99.90;;;;;;5052126;28;20948;-70
2021/08/16 04:15:36;;;;;;;23.20;21.57;;;21.30;99.90;;;;;;5052112;28;20448;-70
2021/08/16 04:18:03;;;;;;;23.93;22.23;;;21.20;99.90;;;;;;5051771;28;20956;-71
2021/08/16 04:20:31;;;;;;;25.63;23.37;;;21.20;99.90;;;;;;5051984;28;20444;-70
2021/08/16 04:22:58;;;;;;;24.47;22.97;;;21.10;99.90;;;;;;5051659;28;20444;-71
2021/08/16 04:25:25;;;;;;;23.70;22.00;;;21.20;99.90;;;;;;5051940;28;20440;-70
2021/08/16 04:27:51;;;;;;;24.50;22.67;;;21.20;99.90;;;;;;5051796;28;20448;-70
2021/08/16 04:30:18;;;;;;;25.00;23.07;;;21.20;99.90;;;;;;5051821;28;20487;-70
2021/08/16 04:32:45;;;;;;;26.67;24.70;;;21.10;99.90;;;;;;5051565;28;20455;-70
2021/08/16 04:35:12;;;;;;;25.33;23.63;;;21.10;99.90;;;;;;5051481;28;20829;-70
2021/08/16 04:37:41;;;;;;;23.90;22.37;;;21.20;99.90;;;;;;5051731;28;20840;-70
2021/08/16 04:40:10;;;;;;;23.70;22.10;;;21.20;99.90;;;;;;5051600;28;20480;-71
2021/08/16 04:42:37;;;;;;;24.17;22.30;;;21.30;99.90;;;;;;5051770;28;20813;-71
2021/08/16 04:45:05;;;;;;;23.83;22.23;;;21.30;99.90;;;;;;5051243;28;20452;-71
2021/08/16 04:47:31;;;;;;;23.60;22.17;;;21.40;99.90;;;;;;5051341;28;20531;-70
2021/08/16 04:49:58;;;;;;;21.87;20.57;;;21.40;99.90;;;;;;5051121;28;20484;-71
2021/08/16 04:52:25;;;;;;;23.00;21.30;;;21.40;99.90;;;;;;5051228;28;20455;-71
2021/08/16 04:54:53;;;;;;;23.50;21.93;;;21.40;99.90;;;;;;5051383;28;20937;-71
2021/08/16 04:57:31;;;;;;;23.50;22.10;;;21.50;99.90;;;;;;5051069;28;20448;-71
2021/08/16 04:59:57;;;;;;;25.07;23.53;;;21.60;99.90;;;;;;5050859;28;20495;-71
2021/08/16 05:02:24;;;;;;;24.30;22.53;;;21.70;99.90;;;;;;5051390;28;20467;-71
2021/08/16 05:04:55;;;;;;;25.13;23.53;;;21.80;99.90;;;;;;5051132;28;20474;-71
2021/08/16 05:07:22;;;;;;;26.07;24.27;;;21.90;99.90;;;;;;5051125;28;20973;-71
2021/08/16 05:09:50;;;;;;;25.90;24.30;;;21.90;99.90;;;;;;5050824;28;20459;-71
2021/08/16 05:12:18;;;;;;;23.07;21.60;;;21.90;99.90;;;;;;5050699;28;20480;-71
2021/08/16 05:14:45;;;;;;;23.57;21.77;;;21.90;99.90;;;;;;5050529;28;20455;-71
2021/08/16 05:17:12;;;;;;;23.20;21.60;;;21.80;99.90;;;;;;5050861;28;20448;-70
2021/08/16 05:19:38;;;;;;;19.00;17.80;;;21.80;99.90;;;;;;5051114;28;20440;-70
2021/08/16 05:22:07;;;;;;;20.90;19.17;;;21.80;99.90;;;;;;5050878;28;20452;-70
2021/08/16 05:24:34;;;;;;;19.77;18.43;;;21.80;99.90;;;;;;5050604;28;20452;-69
2021/08/16 05:27:01;;;;;;;21.07;19.67;;;21.80;99.90;;;;;;5058552;28;20934;-70
2021/08/16 05:29:30;;;;;;;19.37;18.27;;;21.90;99.90;;;;;;5059226;28;20443;-70
2021/08/16 05:31:57;;;;;;;20.20;18.80;;;21.90;99.90;;;;;;5060271;28;20479;-70
2021/08/16 05:34:24;;;;;;;20.20;18.90;;;21.90;99.90;;;;;;5058958;28;20799;-71
2021/08/16 05:36:51;;;;;;;20.73;19.43;;;21.90;99.90;;;;;;5058513;28;20448;-71
2021/08/16 05:39:18;;;;;;;20.40;19.23;;;21.80;99.90;;;;;;5060276;28;20465;-71
2021/08/16 05:41:44;;;;;;;20.90;19.60;;;21.90;99.90;;;;;;5058951;28;20866;-71
2021/08/16 05:44:11;;;;;;;19.30;18.17;;;22.00;99.90;;;;;;5058495;28;20447;-70
2021/08/16 05:46:39;;;;;;;20.77;19.40;;;22.00;99.90;;;;;;5060413;28;20450;-70
2021/08/16 05:49:06;;;;;;;19.63;18.63;;;21.90;99.90;;;;;;5059090;28;21004;-71
2021/08/16 05:51:33;;;;;;;21.10;19.90;;;21.80;99.90;;;;;;5058015;28;20506;-71
2021/08/16 05:53:59;;;;;;;20.43;19.27;;;21.90;99.90;;;;;;5059867;28;20984;-70
2021/08/16 05:56:26;;;;;;;20.17;18.90;;;21.80;99.90;;;;;;5059250;28;20445;-71
2021/08/16 05:58:53;;;;;;;20.20;19.00;;;21.90;99.90;;;;;;5058278;28;20446;-71
2021/08/16 06:01:19;;;;;;;19.70;18.43;;;21.90;99.90;;;;;;5060098;28;20447;-71
2021/08/16 06:03:47;;;;;;;18.80;17.70;;;21.90;99.90;;;;;;5058473;28;20826;-71
2021/08/16 06:06:14;;;;;;;19.80;18.40;;;21.90;99.90;;;;;;5057892;28;20448;-71
2021/08/16 06:08:41;;;;;;;19.23;18.23;;;22.00;99.90;;;;;;5054736;28;20448;-72
2021/08/16 06:11:07;;;;;;;18.17;17.00;;;22.10;99.90;;;;;;5052957;28;20506;-72
2021/08/16 06:13:34;;;;;;;18.83;17.60;;;22.00;99.90;;;;;;5053810;28;20460;-71
2021/08/16 06:16:01;;;;;;;19.27;18.00;;;21.90;99.90;;;;;;5054241;28;20479;-71
2021/08/16 06:18:27;;;;;;;18.33;17.30;;;21.90;99.90;;;;;;5054063;28;20451;-71
2021/08/16 06:20:55;;;;;;;17.57;16.50;;;22.00;99.90;;;;;;5054079;28;20440;-72
2021/08/16 06:23:22;;;;;;;18.43;17.30;;;22.10;99.90;;;;;;5054244;28;20448;-72
2021/08/16 06:25:49;;;;;;;17.53;16.63;;;22.30;99.90;;;;;;5053998;28;20451;-72
2021/08/16 06:28:16;;;;;;;16.27;15.40;;;22.30;99.90;;;;;;5053897;28;20440;-72
2021/08/16 06:30:43;;;;;;;17.67;16.70;;;22.40;99.90;;;;;;5053980;28;20452;-72
2021/08/16 06:33:09;;;;;;;17.07;16.07;;;22.60;99.90;;;;;;5053820;28;20460;-72
2021/08/16 06:35:37;;;;;;;19.67;18.33;;;23.20;99.90;;;;;;5053586;28;20455;-72
2021/08/16 06:38:11;;;;;;;20.07;18.73;;;23.90;99.90;;;;;;5053799;28;20452;-71
2021/08/16 06:40:38;;;;;;;17.60;16.50;;;24.30;99.90;;;;;;5053822;28;20458;-72
2021/08/16 06:43:06;;;;;;;17.23;16.23;;;25.10;99.90;;;;;;5053971;28;20479;-72
2021/08/16 06:45:33;;;;;;;17.93;16.50;;;26.10;99.90;;;;;;5053318;28;20787;-72
2021/08/16 06:48:00;;;;;;;18.67;17.40;;;26.40;99.90;;;;;;5053271;28;20505;-72
2021/08/16 06:50:26;;;;;;;18.47;17.20;;;26.40;99.90;;;;;;5053799;28;20455;-72
2021/08/16 06:52:53;;;;;;;16.97;15.77;;;26.20;99.90;;;;;;5053734;28;20487;-72
2021/08/16 06:55:21;;;;;;;16.73;15.83;;;25.80;99.90;;;;;;5053295;28;20455;-73
2021/08/16 06:57:48;;;;;;;17.47;16.57;;;25.50;99.90;;;;;;5053230;28;20459;-72
2021/08/16 07:00:15;;;;;;;17.40;16.10;;;25.00;99.90;;;;;;5053241;28;20452;-72
2021/08/16 07:02:42;;;;;;;15.70;14.90;;;24.70;99.90;;;;;;5053265;28;20444;-72
2021/08/16 07:05:10;;;;;;;16.83;16.00;;;24.50;99.90;;;;;;5053063;28;20464;-72
2021/08/16 07:07:37;;;;;;;16.87;15.87;;;23.90;99.90;;;;;;5053315;28;20459;-72
2021/08/16 07:10:04;;;;;;;17.10;16.20;;;23.60;99.90;;;;;;5053000;28;20452;-72
2021/08/16 07:12:32;;;;;;;17.30;16.30;;;23.30;99.90;;;;;;5052691;28;20488;-72
2021/08/16 07:14:59;;;;;;;16.43;15.50;;;23.10;99.90;;;;;;5063230;28;20459;-72
2021/08/16 07:17:26;;;;;;;16.77;15.87;;;23.30;99.90;;;;;;5064392;28;20539;-72
2021/08/16 07:19:53;;;;;;;15.93;15.13;;;23.50;99.90;;;;;;5053350;28;20456;-71
2021/08/16 07:22:19;;;;;;;15.17;14.40;;;23.60;99.90;;;;;;5066580;28;20475;-72
2021/08/16 07:24:46;;;;;;;15.63;14.93;;;23.60;99.90;;;;;;5073183;28;20455;-72
2021/08/16 07:27:13;;;;;;;16.47;15.47;;;23.60;99.90;;;;;;5073309;28;20447;-72
2021/08/16 07:29:41;;;;;;;16.37;15.47;;;23.40;99.90;;;;;;5069192;28;20444;-72
2021/08/16 07:32:08;;;;;;;16.33;15.53;;;23.10;99.90;;;;;;5052641;28;20846;-72
2021/08/16 07:34:37;;;;;;;17.30;16.20;;;23.00;99.90;;;;;;5052825;28;20444;-72
2021/08/16 07:37:04;;;;;;;17.10;16.27;;;23.00;99.90;;;;;;5053055;28;20831;-72
2021/08/16 07:39:31;;;;;;;18.07;16.97;;;23.20;99.90;;;;;;5053067;28;20497;-72
2021/08/16 07:41:58;;;;;;;16.33;15.43;;;23.30;99.90;;;;;;5053053;28;20456;-72
2021/08/16 07:44:24;;;;;;;16.53;15.43;;;23.30;99.90;;;;;;5051095;28;20452;-72
2021/08/16 07:46:52;;;;;;;17.47;16.47;;;23.20;99.90;;;;;;5061770;28;20435;-72
2021/08/16 07:49:19;;;;;;;16.13;15.33;;;23.40;99.90;;;;;;5072625;28;20475;-72
2021/08/16 07:51:46;;;;;;;17.47;16.37;;;23.40;99.90;;;;;;5072973;28;20501;-72
2021/08/16 07:54:13;;;;;;;16.97;15.80;;;23.50;99.90;;;;;;5073210;28;20554;-72
2021/08/16 07:56:39;;;;;;;16.97;15.97;;;23.50;99.90;;;;;;5067569;28;20824;-72
2021/08/16 07:59:06;;;;;;;16.10;15.20;;;23.80;99.90;;;;;;5051072;28;20992;-73
2021/08/16 08:01:33;;;;;;;17.77;16.67;;;23.80;99.90;;;;;;5052209;28;20459;-72
2021/08/16 08:04:01;;;;;;;17.30;16.40;;;24.00;99.90;;;;;;5052266;28;20729;-72
2021/08/16 08:06:28;;;;;;;16.57;15.67;;;24.00;99.90;;;;;;5051449;28;20448;-72
2021/08/16 08:08:55;;;;;;;16.03;14.87;;;24.00;99.90;;;;;;5063098;28;20480;-72
2021/08/16 08:11:21;;;;;;;15.27;14.13;;;24.00;99.90;;;;;;5057858;28;20479;-72
2021/08/16 08:13:48;;;;;;;16.17;15.37;;;24.10;99.90;;;;;;5072277;28;20443;-72
2021/08/16 08:16:15;;;;;;;15.80;14.90;;;24.00;99.90;;;;;;5061089;28;20472;-73
2021/08/16 08:18:42;;;;;;;15.47;14.50;;;24.00;99.90;;;;;;5052167;28;20455;-72
2021/08/16 08:21:10;;;;;;;17.37;16.07;;;24.00;99.90;;;;;;5052267;28;20456;-72
2021/08/16 08:23:38;;;;;;;16.50;15.60;;;24.00;99.90;;;;;;5053266;28;20448;-72
2021/08/16 08:26:04;;;;;;;16.73;15.73;;;24.00;99.90;;;;;;5053005;28;20474;-72
2021/08/16 08:28:31;;;;;;;17.40;16.10;;;24.00;99.90;;;;;;5051890;28;20448;-73
2021/08/16 08:30:58;;;;;;;17.40;16.20;;;24.30;99.90;;;;;;5052012;28;20460;-72
2021/08/16 08:33:25;;;;;;;17.40;16.40;;;24.50;99.90;;;;;;5051025;28;21425;-71
2021/08/16 08:35:52;;;;;;;18.30;17.40;;;25.00;99.90;;;;;;5051661;28;20458;-75
2021/08/16 08:38:20;;;;;;;17.13;16.13;;;25.50;99.60;;;;;;5051261;28;20452;-75
2021/08/16 08:40:49;;;;;;;17.40;16.30;;;26.20;98.20;;;;;;5051436;28;20535;-75
2021/08/16 08:43:16;;;;;;;18.00;17.00;;;27.00;96.80;;;;;;5051378;28;20938;-75
2021/08/16 08:45:44;;;;;;;17.00;16.07;;;27.10;95.90;;;;;;5051331;28;20455;-75
2021/08/16 08:48:12;;;;;;;16.57;15.57;;;27.20;95.60;;;;;;5050979;28;20483;-75
2021/08/16 08:50:39;;;;;;;16.27;15.47;;;27.10;95.30;;;;;;5051321;28;20877;-75
2021/08/16 08:53:06;;;;;;;15.90;14.90;;;26.60;95.60;;;;;;5051255;28;20541;-75
2021/08/16 08:55:34;;;;;;;16.50;15.47;;;25.90;96.60;;;;;;5049635;28;20491;-74
2021/08/16 08:58:02;;;;;;;17.47;16.40;;;25.70;97.20;;;;;;5051580;28;20453;-75
2021/08/16 09:00:29;;;;;;;18.77;17.30;;;25.80;97.70;;;;;;5051420;28;20452;-75
2021/08/16 09:02:57;;;;;;;17.37;16.47;;;25.60;97.80;;;;;;5051426;28;20444;-76
2021/08/16 09:05:25;;;;;;;17.43;16.43;;;25.50;98.00;;;;;;5051389;28;20472;-73
2021/08/16 09:07:54;;;;;;;17.20;16.20;;;25.60;97.30;;;;;;5051236;28;20471;-74
2021/08/16 09:10:22;;;;;;;18.93;17.70;;;26.40;97.10;;;;;;5051204;28;20538;-73
2021/08/16 09:12:50;;;;;;;16.63;15.70;;;27.20;95.60;;;;;;5050963;28;20993;-74
2021/08/16 09:15:18;;;;;;;17.50;16.40;;;27.20;95.10;;;;;;5051165;28;20455;-73
2021/08/16 09:17:45;;;;;;;18.07;16.97;;;27.10;95.50;;;;;;5049159;28;20720;-73
2021/08/16 09:20:17;;;;;;;17.83;16.53;;;26.80;95.90;;;;;;5050844;28;20455;-73
2021/08/16 09:22:56;;;;;;;18.67;17.60;;;26.50;96.10;;;;;;5051282;28;20444;-74
2021/08/16 09:25:24;;;;;;;17.37;16.17;;;26.80;95.40;;;;;;5050993;28;20452;-74
2021/08/16 09:27:53;;;;;;;17.50;16.47;;;26.70;95.80;;;;;;5050822;28;20838;-74
2021/08/16 09:30:31;;;;;;;18.20;16.90;;;26.70;95.20;;;;;;5050926;28;20448;-73
2021/08/16 09:32:58;;;;;;;17.40;16.37;;;26.70;95.00;;;;;;5050910;28;20515;-73
2021/08/16 09:35:24;;;;;;;18.60;17.13;;;26.70;95.00;;;;;;5051241;28;20452;-73
2021/08/16 09:37:55;;;;;;;17.67;16.53;;;26.50;94.80;;;;;;5050914;28;20444;-73
2021/08/16 09:40:22;;;;;;;16.93;15.83;;;26.30;94.90;;;;;;5051137;28;20456;-73
2021/08/16 09:42:50;;;;;;;17.33;16.23;;;25.90;95.40;;;;;;5050897;28;20448;-74
2021/08/16 09:45:30;;;;;;;18.03;16.83;;;25.90;95.10;;;;;;5050710;28;20539;-74
2021/08/16 09:47:59;;;;;;;17.40;16.30;;;25.40;95.10;;;;;;5050563;28;20455;-74
2021/08/16 09:50:37;;;;;;;18.70;17.33;;;25.30;95.80;;;;;;5050982;28;20484;-74
2021/08/16 09:53:07;;;;;;;18.50;17.20;;;25.10;96.50;;;;;;5050812;28;20545;-73
2021/08/16 09:55:38;;;;;;;17.07;16.00;;;24.70;96.90;;;;;;5050968;28;20452;-73
2021/08/16 09:58:07;;;;;;;17.70;16.47;;;24.60;97.10;;;;;;5050950;28;20949;-73
2021/08/16 10:00:36;;;;;;;17.07;16.07;;;24.40;97.40;;;;;;5050716;28;20440;-72
2021/08/16 10:03:05;;;;;;;18.43;16.97;;;24.30;97.50;;;;;;5050610;28;20443;-75
2021/08/16 10:05:32;;;;;;;15.50;14.60;;;24.20;97.70;;;;;;5050368;28;20827;-74
2021/08/16 10:08:01;;;;;;;17.43;16.30;;;24.50;97.70;;;;;;5050512;28;20436;-74
2021/08/16 10:10:30;;;;;;;16.60;15.30;;;25.00;97.00;;;;;;5050599;28;20456;-75
2021/08/16 10:12:58;;;;;;;16.60;15.80;;;25.60;95.50;;;;;;5050572;28;20487;-74
2021/08/16 10:15:26;;;;;;;15.87;15.07;;;25.80;95.40;;;;;;5050906;28;20452;-74
2021/08/16 10:17:54;;;;;;;15.90;14.73;;;26.00;95.30;;;;;;5050633;28;20448;-75
2021/08/16 10:20:21;;;;;;;16.40;15.40;;;26.00;95.10;;;;;;5050293;28;20471;-74
2021/08/16 10:22:48;;;;;;;16.17;15.27;;;26.20;95.00;;;;;;5050429;28;20447;-74
2021/08/16 10:25:16;;;;;;;16.83;15.87;;;26.10;94.20;;;;;;5050480;28;20704;-74
2021/08/16 10:27:44;;;;;;;16.93;15.87;;;26.00;95.30;;;;;;5050396;28;20964;-75
2021/08/16 10:30:13;;;;;;;15.43;14.63;;;25.90;95.00;;;;;;5050583;28;20467;-74
2021/08/16 10:32:40;;;;;;;15.50;14.70;;;25.30;95.00;;;;;;5050432;28;20491;-74
2021/08/16 10:35:11;;;;;;;16.10;15.20;;;25.00;96.20;;;;;;5050558;28;20448;-74
2021/08/16 10:37:39;;;;;;;14.67;13.87;;;25.00;96.00;;;;;;5050575;28;20945;-74
2021/08/16 10:40:18;;;;;;;15.00;14.20;;;24.90;95.50;;;;;;5050536;28;20459;-75
2021/08/16 10:42:44;;;;;;;16.40;15.33;;;25.10;95.10;;;;;;5050134;28;20454;-74
2021/08/16 10:45:12;;;;;;;16.50;15.50;;;25.10;95.40;;;;;;5050428;28;20456;-73
2021/08/16 10:47:39;;;;;;;16.10;15.23;;;25.50;95.10;;;;;;5050382;28;20823;-74
2021/08/16 10:50:09;;;;;;;15.97;15.07;;;26.00;94.40;;;;;;5050118;28;20981;-74
2021/08/16 10:52:38;;;;;;;17.13;16.13;;;26.10;93.10;;;;;;5050242;28;20493;-74
2021/08/16 10:55:09;;;;;;;16.90;15.80;;;26.20;93.20;;;;;;5050264;28;20810;-74
2021/08/16 10:57:36;;;;;;;17.00;15.90;;;26.70;93.50;;;;;;5053264;28;20459;-74
2021/08/16 11:00:04;;;;;;;15.57;14.67;;;27.40;91.90;;;;;;5053952;28;20451;-73
2021/08/16 11:02:31;;;;;;;16.10;15.30;;;27.80;90.90;;;;;;5053709;28;20791;-74
2021/08/16 11:04:58;;;;;;;15.87;15.07;;;27.60;90.80;;;;;;5053661;28;20467;-74
2021/08/16 11:07:26;;;;;;;16.80;15.90;;;27.50;90.90;;;;;;5053813;28;20463;-73
2021/08/16 11:09:58;;;;;;;17.10;16.00;;;27.20;91.20;;;;;;5053591;28;20933;-73
2021/08/16 11:12:32;;;;;;;15.63;14.63;;;26.90;91.00;;;;;;5053645;28;20475;-74
2021/08/16 11:14:59;;;;;;;17.83;16.83;;;26.60;92.20;;;;;;5053637;28;20471;-72
2021/08/16 11:17:27;;;;;;;16.60;15.70;;;26.60;92.40;;;;;;5053471;28;20945;-71
2021/08/16 11:19:57;;;;;;;18.17;17.20;;;27.50;91.10;;;;;;5053666;28;20543;-72
2021/08/16 11:22:24;;;;;;;17.13;16.23;;;28.80;90.00;;;;;;5053602;28;20807;-73
2021/08/16 11:24:52;;;;;;;16.70;15.80;;;29.90;85.00;;;;;;5051837;28;20451;-73
2021/08/16 11:27:21;;;;;;;17.77;16.73;;;30.20;83.70;;;;;;5053284;28;20444;-74
2021/08/16 11:29:57;;;;;;;17.87;16.80;;;29.60;82.80;;;;;;5053309;28;20459;-73
2021/08/16 11:32:24;;;;;;;18.00;16.87;;;30.10;83.60;;;;;;5053378;28;20452;-74
2021/08/16 11:34:53;;;;;;;17.47;16.57;;;30.80;80.40;;;;;;5053362;28;20459;-74
2021/08/16 11:37:21;;;;;;;17.97;17.00;;;30.50;79.60;;;;;;5053210;28;20462;-74
2021/08/16 11:39:50;;;;;;;17.47;16.43;;;29.10;82.10;;;;;;5053113;28;20861;-74
2021/08/16 11:42:19;;;;;;;17.37;16.43;;;27.80;85.80;;;;;;5053134;28;20445;-74
2021/08/16 11:44:56;;;;;;;15.23;14.23;;;27.00;89.30;;;;;;5053050;28;20459;-73
2021/08/16 11:47:29;;;;;;;17.47;16.40;;;26.80;90.50;;;;;;5053143;28;20475;-74
2021/08/16 11:49:59;;;;;;;15.57;14.57;;;27.70;89.10;;;;;;5052873;28;20515;-74
2021/08/16 11:52:27;;;;;;;15.73;14.97;;;29.30;84.80;;;;;;5052976;28;20856;-74
2021/08/16 11:54:54;;;;;;;17.13;16.03;;;29.90;81.80;;;;;;5053037;28;20451;-74
2021/08/16 11:57:23;;;;;;;16.83;15.93;;;30.60;79.20;;;;;;5052806;28;20441;-75
2021/08/16 11:59:51;;;;;;;16.60;15.57;;;30.90;76.80;;;;;;5052929;28;20510;-75
2021/08/16 12:02:19;;;;;;;16.60;15.60;;;31.30;76.50;;;;;;5053433;28;20478;-69
2021/08/16 12:04:49;;;;;;;18.70;17.20;;;32.00;74.80;;;;;;5060668;28;20466;-69
2021/08/16 12:07:19;;;;;;;17.80;16.80;;;32.40;73.20;;;;;;5061979;28;20644;-70
2021/08/16 12:09:45;;;;;;;16.30;15.50;;;33.20;70.30;;;;;;5061678;28;20440;-71
2021/08/16 12:12:12;;;;;;;16.90;15.90;;;32.60;70.40;;;;;;5059966;28;20456;-71
2021/08/16 12:14:40;;;;;;;15.73;15.03;;;31.20;72.20;;;;;;5061690;28;20490;-71
2021/08/16 12:17:08;;;;;;;15.77;14.80;;;30.10;76.20;;;;;;5061703;28;20447;-71
2021/08/16 12:19:35;;;;;;;17.10;16.10;;;30.20;76.40;;;;;;5059990;28;20440;-71
2021/08/16 12:22:04;;;;;;;15.27;14.57;;;30.30;75.20;;;;;;5061093;28;21138;-72
2021/08/16 12:24:31;;;;;;;16.23;15.27;;;29.60;75.00;;;;;;5061882;28;21067;-71
2021/08/16 12:27:03;;;;;;;15.50;14.70;;;28.00;79.40;;;;;;5050752;28;20455;-72
2021/08/16 12:29:41;;;;;;;15.33;14.57;;;28.20;80.70;;;;;;5050804;28;20455;-71